Terminal Aerodrome Forecast
Issued by NWS

Home | Current Version | Previous Version | Text Only | Print | Product List | Glossary On
Versions: 1 2 3 4 5 6 7 8 9 10 11 12 13 14
248
FTUS42 KTBW 210540
TAFLAL
TAF
KLAL 210540Z 2106/2206 19004KT 5SM BR SCT010 BKN250
      TEMPO 2110/2113 2SM BR BKN010
     FM211400 18006KT P6SM SCT010 BKN120
     FM211600 19010G15KT P6SM FEW025 BKN120
     FM211900 21014G20KT P6SM FEW025 BKN120
     FM220000 20010KT P6SM BKN250
      AMD NOT SKED TIL 211100=

USA.gov is the U.S. government's official web portal to all federal, state and local government web resources and services.